sensor_id;sensor_type;location;lat;lon;timestamp;P1;durP1;ratioP1;P2;durP2;ratioP2
23290;SDS011;11814;44.686;10.842;2022-12-07T00:01:14;109.00;;;46.25;;
23290;SDS011;11814;44.686;10.842;2022-12-07T00:03:44;93.72;;;45.15;;
23290;SDS011;11814;44.686;10.842;2022-12-07T00:06:12;101.45;;;48.55;;
23290;SDS011;11814;44.686;10.842;2022-12-07T00:08:39;108.30;;;49.15;;
23290;SDS011;11814;44.686;10.842;2022-12-07T00:11:06;97.00;;;47.28;;
23290;SDS011;11814;44.686;10.842;2022-12-07T00:13:37;104.85;;;46.97;;
23290;SDS011;11814;44.686;10.842;2022-12-07T00:16:05;105.95;;;47.95;;
23290;SDS011;11814;44.686;10.842;2022-12-07T00:18:32;107.72;;;48.25;;
23290;SDS011;11814;44.686;10.842;2022-12-07T00:21:06;103.03;;;47.40;;
23290;SDS011;11814;44.686;10.842;2022-12-07T00:23:36;114.90;;;49.28;;
23290;SDS011;11814;44.686;10.842;2022-12-07T00:26:06;112.28;;;49.25;;
23290;SDS011;11814;44.686;10.842;2022-12-07T00:28:37;128.95;;;49.17;;
23290;SDS011;11814;44.686;10.842;2022-12-07T00:31:04;127.22;;;51.33;;
23290;SDS011;11814;44.686;10.842;2022-12-07T00:33:34;129.63;;;50.80;;
23290;SDS011;11814;44.686;10.842;2022-12-07T00:36:01;134.65;;;52.67;;
23290;SDS011;11814;44.686;10.842;2022-12-07T00:38:32;130.20;;;51.55;;
23290;SDS011;11814;44.686;10.842;2022-12-07T00:40:59;132.43;;;50.80;;
23290;SDS011;11814;44.686;10.842;2022-12-07T00:43:27;122.85;;;49.97;;
23290;SDS011;11814;44.686;10.842;2022-12-07T00:45:53;133.65;;;53.15;;
23290;SDS011;11814;44.686;10.842;2022-12-07T00:48:19;133.68;;;52.85;;
23290;SDS011;11814;44.686;10.842;2022-12-07T00:50:45;148.82;;;53.97;;
23290;SDS011;11814;44.686;10.842;2022-12-07T00:53:11;147.73;;;54.70;;
23290;SDS011;11814;44.686;10.842;2022-12-07T00:55:37;161.48;;;57.17;;
23290;SDS011;11814;44.686;10.842;2022-12-07T00:58:03;151.98;;;53.58;;
23290;SDS011;11814;44.686;10.842;2022-12-07T01:00:29;132.88;;;52.58;;
23290;SDS011;11814;44.686;10.842;2022-12-07T01:02:55;130.75;;;52.42;;
23290;SDS011;11814;44.686;10.842;2022-12-07T01:05:21;183.68;;;56.20;;
23290;SDS011;11814;44.686;10.842;2022-12-07T01:07:47;130.40;;;50.88;;
23290;SDS011;11814;44.686;10.842;2022-12-07T01:10:13;153.15;;;53.15;;
23290;SDS011;11814;44.686;10.842;2022-12-07T01:12:39;151.23;;;54.40;;
23290;SDS011;11814;44.686;10.842;2022-12-07T01:15:05;281.52;;;60.60;;
23290;SDS011;11814;44.686;10.842;2022-12-07T01:17:31;151.13;;;55.05;;
23290;SDS011;11814;44.686;10.842;2022-12-07T01:19:57;147.40;;;57.58;;
23290;SDS011;11814;44.686;10.842;2022-12-07T01:22:23;154.13;;;56.17;;
23290;SDS011;11814;44.686;10.842;2022-12-07T01:24:48;202.98;;;57.63;;
23290;SDS011;11814;44.686;10.842;2022-12-07T01:27:14;144.82;;;56.33;;
23290;SDS011;11814;44.686;10.842;2022-12-07T01:29:40;136.13;;;54.30;;
23290;SDS011;11814;44.686;10.842;2022-12-07T01:32:06;241.05;;;60.72;;
23290;SDS011;11814;44.686;10.842;2022-12-07T01:34:31;171.82;;;60.17;;
23290;SDS011;11814;44.686;10.842;2022-12-07T01:36:57;144.40;;;54.25;;
23290;SDS011;11814;44.686;10.842;2022-12-07T01:39:23;140.75;;;54.20;;
23290;SDS011;11814;44.686;10.842;2022-12-07T01:41:48;136.60;;;55.30;;
23290;SDS011;11814;44.686;10.842;2022-12-07T01:44:24;140.52;;;54.33;;
23290;SDS011;11814;44.686;10.842;2022-12-07T01:46:52;129.73;;;53.45;;
23290;SDS011;11814;44.686;10.842;2022-12-07T01:49:37;125.65;;;52.78;;
23290;SDS011;11814;44.686;10.842;2022-12-07T01:52:17;154.70;;;50.92;;
23290;SDS011;11814;44.686;10.842;2022-12-07T01:54:51;138.63;;;53.30;;
23290;SDS011;11814;44.686;10.842;2022-12-07T01:57:21;124.55;;;51.95;;
23290;SDS011;11814;44.686;10.842;2022-12-07T01:59:48;131.73;;;54.67;;
23290;SDS011;11814;44.686;10.842;2022-12-07T02:02:32;132.82;;;53.75;;
23290;SDS011;11814;44.686;10.842;2022-12-07T02:05:00;130.30;;;53.50;;
23290;SDS011;11814;44.686;10.842;2022-12-07T02:07:27;130.55;;;53.67;;
23290;SDS011;11814;44.686;10.842;2022-12-07T02:09:54;115.70;;;51.45;;
23290;SDS011;11814;44.686;10.842;2022-12-07T02:12:20;114.32;;;51.08;;
23290;SDS011;11814;44.686;10.842;2022-12-07T02:14:47;112.78;;;50.47;;
23290;SDS011;11814;44.686;10.842;2022-12-07T02:17:28;107.05;;;49.03;;
23290;SDS011;11814;44.686;10.842;2022-12-07T02:23:16;96.88;;;47.63;;
23290;SDS011;11814;44.686;10.842;2022-12-07T02:31:28;87.43;;;46.17;;
23290;SDS011;11814;44.686;10.842;2022-12-07T02:33:58;95.13;;;46.42;;
23290;SDS011;11814;44.686;10.842;2022-12-07T02:36:39;102.28;;;50.30;;
23290;SDS011;11814;44.686;10.842;2022-12-07T02:39:16;114.65;;;49.15;;
23290;SDS011;11814;44.686;10.842;2022-12-07T02:41:52;113.47;;;51.47;;
23290;SDS011;11814;44.686;10.842;2022-12-07T02:44:24;105.80;;;50.28;;
23290;SDS011;11814;44.686;10.842;2022-12-07T02:47:02;104.20;;;50.25;;
23290;SDS011;11814;44.686;10.842;2022-12-07T02:49:32;119.15;;;52.15;;
23290;SDS011;11814;44.686;10.842;2022-12-07T02:51:58;128.25;;;53.08;;
23290;SDS011;11814;44.686;10.842;2022-12-07T02:54:23;118.00;;;52.15;;
23290;SDS011;11814;44.686;10.842;2022-12-07T03:00:02;108.65;;;49.65;;
23290;SDS011;11814;44.686;10.842;2022-12-07T03:02:41;114.82;;;50.13;;
23290;SDS011;11814;44.686;10.842;2022-12-07T03:18:49;116.28;;;50.47;;
23290;SDS011;11814;44.686;10.842;2022-12-07T03:21:43;114.97;;;48.65;;
23290;SDS011;11814;44.686;10.842;2022-12-07T03:24:14;111.60;;;48.53;;
23290;SDS011;11814;44.686;10.842;2022-12-07T03:26:43;116.72;;;49.92;;
23290;SDS011;11814;44.686;10.842;2022-12-07T03:29:34;122.07;;;50.60;;
23290;SDS011;11814;44.686;10.842;2022-12-07T03:32:08;112.28;;;49.33;;
23290;SDS011;11814;44.686;10.842;2022-12-07T03:34:42;108.22;;;48.10;;
23290;SDS011;11814;44.686;10.842;2022-12-07T03:37:17;112.72;;;49.22;;
23290;SDS011;11814;44.686;10.842;2022-12-07T03:42:26;105.45;;;50.55;;
23290;SDS011;11814;44.686;10.842;2022-12-07T03:44:52;112.05;;;49.47;;
23290;SDS011;11814;44.686;10.842;2022-12-07T03:50:14;100.82;;;47.97;;
23290;SDS011;11814;44.686;10.842;2022-12-07T03:52:55;101.43;;;47.63;;
23290;SDS011;11814;44.686;10.842;2022-12-07T03:55:31;103.72;;;48.00;;
23290;SDS011;11814;44.686;10.842;2022-12-07T03:58:02;110.50;;;49.30;;
23290;SDS011;11814;44.686;10.842;2022-12-07T04:00:33;102.07;;;48.15;;
23290;SDS011;11814;44.686;10.842;2022-12-07T04:02:59;96.13;;;46.50;;
23290;SDS011;11814;44.686;10.842;2022-12-07T04:05:24;95.05;;;48.45;;
23290;SDS011;11814;44.686;10.842;2022-12-07T04:07:51;100.22;;;48.97;;
23290;SDS011;11814;44.686;10.842;2022-12-07T04:10:16;98.50;;;48.38;;
23290;SDS011;11814;44.686;10.842;2022-12-07T04:12:42;96.90;;;48.00;;
23290;SDS011;11814;44.686;10.842;2022-12-07T04:15:08;98.32;;;47.60;;
23290;SDS011;11814;44.686;10.842;2022-12-07T04:17:34;97.65;;;47.72;;
23290;SDS011;11814;44.686;10.842;2022-12-07T04:20:00;110.07;;;50.72;;
23290;SDS011;11814;44.686;10.842;2022-12-07T04:22:26;100.97;;;51.60;;
23290;SDS011;11814;44.686;10.842;2022-12-07T04:24:53;105.75;;;50.83;;
23290;SDS011;11814;44.686;10.842;2022-12-07T04:27:18;95.68;;;48.20;;
23290;SDS011;11814;44.686;10.842;2022-12-07T04:29:44;101.63;;;49.03;;
23290;SDS011;11814;44.686;10.842;2022-12-07T04:32:10;90.50;;;46.88;;
23290;SDS011;11814;44.686;10.842;2022-12-07T04:34:35;96.65;;;49.42;;
23290;SDS011;11814;44.686;10.842;2022-12-07T04:37:01;97.95;;;48.72;;
23290;SDS011;11814;44.686;10.842;2022-12-07T04:39:28;97.97;;;48.13;;
23290;SDS011;11814;44.686;10.842;2022-12-07T04:41:55;94.32;;;48.30;;
23290;SDS011;11814;44.686;10.842;2022-12-07T04:44:21;100.85;;;47.95;;
23290;SDS011;11814;44.686;10.842;2022-12-07T04:46:47;115.55;;;50.60;;
23290;SDS011;11814;44.686;10.842;2022-12-07T04:49:14;103.03;;;49.38;;
23290;SDS011;11814;44.686;10.842;2022-12-07T04:51:40;103.53;;;49.25;;
23290;SDS011;11814;44.686;10.842;2022-12-07T04:54:06;114.30;;;50.47;;
23290;SDS011;11814;44.686;10.842;2022-12-07T04:56:32;103.68;;;51.28;;
23290;SDS011;11814;44.686;10.842;2022-12-07T04:59:00;116.47;;;51.30;;
23290;SDS011;11814;44.686;10.842;2022-12-07T05:01:26;112.53;;;52.42;;
23290;SDS011;11814;44.686;10.842;2022-12-07T05:03:52;106.30;;;49.78;;
23290;SDS011;11814;44.686;10.842;2022-12-07T05:06:17;108.55;;;49.50;;
23290;SDS011;11814;44.686;10.842;2022-12-07T05:08:43;98.55;;;49.25;;
23290;SDS011;11814;44.686;10.842;2022-12-07T05:11:09;96.10;;;48.92;;
23290;SDS011;11814;44.686;10.842;2022-12-07T05:13:55;108.30;;;51.20;;
23290;SDS011;11814;44.686;10.842;2022-12-07T05:16:22;100.30;;;49.72;;
23290;SDS011;11814;44.686;10.842;2022-12-07T05:18:47;112.90;;;51.70;;
23290;SDS011;11814;44.686;10.842;2022-12-07T05:21:13;103.03;;;50.13;;
23290;SDS011;11814;44.686;10.842;2022-12-07T05:23:38;104.70;;;49.03;;
23290;SDS011;11814;44.686;10.842;2022-12-07T05:26:04;109.75;;;51.25;;
23290;SDS011;11814;44.686;10.842;2022-12-07T05:28:30;105.00;;;50.45;;
23290;SDS011;11814;44.686;10.842;2022-12-07T05:30:55;99.97;;;48.35;;
23290;SDS011;11814;44.686;10.842;2022-12-07T05:33:21;91.80;;;48.08;;
23290;SDS011;11814;44.686;10.842;2022-12-07T05:35:47;94.22;;;47.40;;
23290;SDS011;11814;44.686;10.842;2022-12-07T05:38:12;91.47;;;47.17;;
23290;SDS011;11814;44.686;10.842;2022-12-07T05:40:38;92.78;;;45.38;;
23290;SDS011;11814;44.686;10.842;2022-12-07T05:43:04;96.30;;;48.15;;
23290;SDS011;11814;44.686;10.842;2022-12-07T05:45:29;87.82;;;45.33;;
23290;SDS011;11814;44.686;10.842;2022-12-07T05:47:55;86.10;;;43.75;;
23290;SDS011;11814;44.686;10.842;2022-12-07T05:50:20;86.22;;;45.33;;
23290;SDS011;11814;44.686;10.842;2022-12-07T05:52:46;88.80;;;43.38;;
23290;SDS011;11814;44.686;10.842;2022-12-07T05:55:12;78.32;;;40.65;;
23290;SDS011;11814;44.686;10.842;2022-12-07T05:57:38;87.10;;;44.80;;
23290;SDS011;11814;44.686;10.842;2022-12-07T06:00:04;82.15;;;41.70;;
23290;SDS011;11814;44.686;10.842;2022-12-07T06:02:30;74.35;;;39.00;;
23290;SDS011;11814;44.686;10.842;2022-12-07T06:04:55;70.75;;;39.53;;
23290;SDS011;11814;44.686;10.842;2022-12-07T06:07:21;71.50;;;35.00;;
23290;SDS011;11814;44.686;10.842;2022-12-07T06:09:47;57.55;;;34.35;;
23290;SDS011;11814;44.686;10.842;2022-12-07T06:12:12;55.97;;;31.00;;
23290;SDS011;11814;44.686;10.842;2022-12-07T06:14:57;46.05;;;29.25;;
23290;SDS011;11814;44.686;10.842;2022-12-07T06:17:23;49.75;;;28.25;;
23290;SDS011;11814;44.686;10.842;2022-12-07T06:19:49;51.00;;;28.52;;
23290;SDS011;11814;44.686;10.842;2022-12-07T06:22:14;53.30;;;29.20;;
23290;SDS011;11814;44.686;10.842;2022-12-07T06:24:41;46.97;;;27.90;;
23290;SDS011;11814;44.686;10.842;2022-12-07T06:27:07;47.50;;;27.60;;
23290;SDS011;11814;44.686;10.842;2022-12-07T06:29:33;48.60;;;27.90;;
23290;SDS011;11814;44.686;10.842;2022-12-07T06:31:59;50.70;;;28.45;;
23290;SDS011;11814;44.686;10.842;2022-12-07T06:34:25;52.83;;;29.38;;
23290;SDS011;11814;44.686;10.842;2022-12-07T06:36:51;65.03;;;34.88;;
23290;SDS011;11814;44.686;10.842;2022-12-07T06:39:21;64.53;;;34.63;;
23290;SDS011;11814;44.686;10.842;2022-12-07T06:41:49;70.75;;;39.35;;
23290;SDS011;11814;44.686;10.842;2022-12-07T06:44:16;75.75;;;41.63;;
23290;SDS011;11814;44.686;10.842;2022-12-07T06:46:42;77.88;;;41.65;;
23290;SDS011;11814;44.686;10.842;2022-12-07T06:49:08;89.85;;;45.65;;
23290;SDS011;11814;44.686;10.842;2022-12-07T06:51:34;93.30;;;46.67;;
23290;SDS011;11814;44.686;10.842;2022-12-07T06:54:01;81.70;;;42.88;;
23290;SDS011;11814;44.686;10.842;2022-12-07T06:56:28;84.20;;;43.63;;
23290;SDS011;11814;44.686;10.842;2022-12-07T06:58:54;79.63;;;42.13;;
23290;SDS011;11814;44.686;10.842;2022-12-07T07:01:20;80.03;;;45.17;;
23290;SDS011;11814;44.686;10.842;2022-12-07T07:03:46;90.82;;;47.80;;
23290;SDS011;11814;44.686;10.842;2022-12-07T07:06:11;88.95;;;48.63;;
23290;SDS011;11814;44.686;10.842;2022-12-07T07:08:38;91.38;;;49.63;;
23290;SDS011;11814;44.686;10.842;2022-12-07T07:11:05;89.32;;;50.35;;
23290;SDS011;11814;44.686;10.842;2022-12-07T07:13:31;88.13;;;49.60;;
23290;SDS011;11814;44.686;10.842;2022-12-07T07:15:57;87.53;;;49.38;;
23290;SDS011;11814;44.686;10.842;2022-12-07T07:18:23;83.05;;;47.63;;
23290;SDS011;11814;44.686;10.842;2022-12-07T07:20:50;78.22;;;46.38;;
23290;SDS011;11814;44.686;10.842;2022-12-07T07:23:16;90.00;;;47.00;;
23290;SDS011;11814;44.686;10.842;2022-12-07T07:25:42;78.95;;;45.83;;
23290;SDS011;11814;44.686;10.842;2022-12-07T07:28:08;75.93;;;43.13;;
23290;SDS011;11814;44.686;10.842;2022-12-07T07:30:33;68.40;;;42.65;;
23290;SDS011;11814;44.686;10.842;2022-12-07T07:32:59;66.32;;;40.10;;
23290;SDS011;11814;44.686;10.842;2022-12-07T07:35:27;72.28;;;42.08;;
23290;SDS011;11814;44.686;10.842;2022-12-07T07:37:54;71.40;;;42.35;;
23290;SDS011;11814;44.686;10.842;2022-12-07T07:40:20;68.35;;;40.63;;
23290;SDS011;11814;44.686;10.842;2022-12-07T07:42:47;71.47;;;41.45;;
23290;SDS011;11814;44.686;10.842;2022-12-07T07:45:13;70.13;;;41.42;;
23290;SDS011;11814;44.686;10.842;2022-12-07T07:47:39;71.10;;;41.85;;
23290;SDS011;11814;44.686;10.842;2022-12-07T07:50:05;74.45;;;40.80;;
23290;SDS011;11814;44.686;10.842;2022-12-07T07:52:31;72.38;;;41.25;;
23290;SDS011;11814;44.686;10.842;2022-12-07T07:54:57;81.63;;;43.45;;
23290;SDS011;11814;44.686;10.842;2022-12-07T07:57:23;80.85;;;43.90;;
23290;SDS011;11814;44.686;10.842;2022-12-07T07:59:49;81.22;;;45.78;;
23290;SDS011;11814;44.686;10.842;2022-12-07T08:02:15;83.68;;;43.88;;
23290;SDS011;11814;44.686;10.842;2022-12-07T08:04:43;80.72;;;45.47;;
23290;SDS011;11814;44.686;10.842;2022-12-07T08:07:09;82.35;;;45.83;;
23290;SDS011;11814;44.686;10.842;2022-12-07T08:09:36;82.70;;;44.13;;
23290;SDS011;11814;44.686;10.842;2022-12-07T08:12:01;80.35;;;45.75;;
23290;SDS011;11814;44.686;10.842;2022-12-07T08:14:27;77.43;;;44.55;;
23290;SDS011;11814;44.686;10.842;2022-12-07T08:16:54;80.05;;;44.50;;
23290;SDS011;11814;44.686;10.842;2022-12-07T08:19:19;77.13;;;45.50;;
23290;SDS011;11814;44.686;10.842;2022-12-07T08:21:45;75.40;;;42.70;;
23290;SDS011;11814;44.686;10.842;2022-12-07T08:24:11;79.53;;;44.40;;
23290;SDS011;11814;44.686;10.842;2022-12-07T08:26:37;76.63;;;43.38;;
23290;SDS011;11814;44.686;10.842;2022-12-07T08:29:03;76.75;;;43.22;;
23290;SDS011;11814;44.686;10.842;2022-12-07T08:31:28;76.57;;;42.28;;
23290;SDS011;11814;44.686;10.842;2022-12-07T08:33:54;71.82;;;41.63;;
23290;SDS011;11814;44.686;10.842;2022-12-07T08:36:20;77.43;;;42.35;;
23290;SDS011;11814;44.686;10.842;2022-12-07T08:38:49;79.25;;;42.03;;
23290;SDS011;11814;44.686;10.842;2022-12-07T08:41:15;72.53;;;41.80;;
23290;SDS011;11814;44.686;10.842;2022-12-07T08:43:41;69.97;;;39.72;;
23290;SDS011;11814;44.686;10.842;2022-12-07T08:46:16;72.47;;;41.13;;
23290;SDS011;11814;44.686;10.842;2022-12-07T08:48:48;71.85;;;41.85;;
23290;SDS011;11814;44.686;10.842;2022-12-07T08:51:16;74.63;;;41.10;;
23290;SDS011;11814;44.686;10.842;2022-12-07T08:53:43;82.35;;;43.03;;
23290;SDS011;11814;44.686;10.842;2022-12-07T08:56:09;70.55;;;41.70;;
23290;SDS011;11814;44.686;10.842;2022-12-07T08:58:35;76.40;;;43.25;;
23290;SDS011;11814;44.686;10.842;2022-12-07T09:01:03;69.55;;;40.92;;
23290;SDS011;11814;44.686;10.842;2022-12-07T09:03:30;70.28;;;41.17;;
23290;SDS011;11814;44.686;10.842;2022-12-07T09:05:56;69.75;;;40.53;;
23290;SDS011;11814;44.686;10.842;2022-12-07T09:08:23;66.90;;;39.53;;
23290;SDS011;11814;44.686;10.842;2022-12-07T09:10:56;65.72;;;38.88;;
23290;SDS011;11814;44.686;10.842;2022-12-07T09:13:22;62.30;;;38.72;;
23290;SDS011;11814;44.686;10.842;2022-12-07T09:15:47;63.05;;;37.83;;
23290;SDS011;11814;44.686;10.842;2022-12-07T09:18:13;62.78;;;38.22;;
23290;SDS011;11814;44.686;10.842;2022-12-07T09:20:39;60.15;;;37.45;;
23290;SDS011;11814;44.686;10.842;2022-12-07T09:23:05;62.33;;;38.20;;
23290;SDS011;11814;44.686;10.842;2022-12-07T09:25:32;59.75;;;37.65;;
23290;SDS011;11814;44.686;10.842;2022-12-07T09:27:58;64.40;;;39.33;;
23290;SDS011;11814;44.686;10.842;2022-12-07T09:30:25;59.42;;;37.75;;
23290;SDS011;11814;44.686;10.842;2022-12-07T09:32:55;60.75;;;38.22;;
23290;SDS011;11814;44.686;10.842;2022-12-07T09:35:22;60.28;;;37.60;;
23290;SDS011;11814;44.686;10.842;2022-12-07T09:37:48;61.97;;;36.60;;
23290;SDS011;11814;44.686;10.842;2022-12-07T09:40:14;60.88;;;35.90;;
23290;SDS011;11814;44.686;10.842;2022-12-07T09:42:44;57.47;;;36.25;;
23290;SDS011;11814;44.686;10.842;2022-12-07T09:45:17;58.58;;;35.70;;
23290;SDS011;11814;44.686;10.842;2022-12-07T09:47:46;58.60;;;37.25;;
23290;SDS011;11814;44.686;10.842;2022-12-07T09:50:13;53.83;;;34.80;;
23290;SDS011;11814;44.686;10.842;2022-12-07T09:52:44;55.70;;;35.45;;
23290;SDS011;11814;44.686;10.842;2022-12-07T09:55:13;60.58;;;36.08;;
23290;SDS011;11814;44.686;10.842;2022-12-07T09:57:40;56.47;;;35.50;;
23290;SDS011;11814;44.686;10.842;2022-12-07T10:00:21;54.55;;;34.53;;
23290;SDS011;11814;44.686;10.842;2022-12-07T10:03:01;52.40;;;34.17;;
23290;SDS011;11814;44.686;10.842;2022-12-07T10:05:29;54.85;;;35.35;;
23290;SDS011;11814;44.686;10.842;2022-12-07T10:07:57;53.33;;;34.05;;
23290;SDS011;11814;44.686;10.842;2022-12-07T10:10:30;52.35;;;34.72;;
23290;SDS011;11814;44.686;10.842;2022-12-07T10:13:18;52.30;;;34.15;;
23290;SDS011;11814;44.686;10.842;2022-12-07T10:18:19;55.40;;;35.20;;
23290;SDS011;11814;44.686;10.842;2022-12-07T10:23:37;52.60;;;33.20;;
23290;SDS011;11814;44.686;10.842;2022-12-07T10:26:21;49.90;;;31.70;;
23290;SDS011;11814;44.686;10.842;2022-12-07T10:28:56;53.78;;;33.53;;
23290;SDS011;11814;44.686;10.842;2022-12-07T10:31:25;46.88;;;32.55;;
23290;SDS011;11814;44.686;10.842;2022-12-07T10:36:30;44.67;;;30.73;;
23290;SDS011;11814;44.686;10.842;2022-12-07T10:41:57;46.40;;;31.90;;
23290;SDS011;11814;44.686;10.842;2022-12-07T10:44:28;45.95;;;30.98;;
23290;SDS011;11814;44.686;10.842;2022-12-07T11:01:00;54.15;;;34.30;;
23290;SDS011;11814;44.686;10.842;2022-12-07T11:09:03;49.10;;;32.67;;
23290;SDS011;11814;44.686;10.842;2022-12-07T11:11:51;52.63;;;34.40;;
23290;SDS011;11814;44.686;10.842;2022-12-07T11:17:16;54.85;;;35.00;;
23290;SDS011;11814;44.686;10.842;2022-12-07T11:19:55;53.40;;;34.13;;
23290;SDS011;11814;44.686;10.842;2022-12-07T11:25:39;47.38;;;33.25;;
23290;SDS011;11814;44.686;10.842;2022-12-07T11:30:55;48.53;;;32.25;;
23290;SDS011;11814;44.686;10.842;2022-12-07T11:33:46;51.28;;;32.53;;
23290;SDS011;11814;44.686;10.842;2022-12-07T11:39:10;49.15;;;31.45;;
23290;SDS011;11814;44.686;10.842;2022-12-07T11:41:48;41.50;;;29.35;;
23290;SDS011;11814;44.686;10.842;2022-12-07T11:52:51;39.88;;;27.92;;
23290;SDS011;11814;44.686;10.842;2022-12-07T11:55:49;43.05;;;28.17;;
23290;SDS011;11814;44.686;10.842;2022-12-07T12:03:34;36.67;;;28.23;;
23290;SDS011;11814;44.686;10.842;2022-12-07T12:06:03;38.33;;;28.75;;
23290;SDS011;11814;44.686;10.842;2022-12-07T12:08:30;35.67;;;26.50;;
23290;SDS011;11814;44.686;10.842;2022-12-07T12:11:15;37.63;;;27.90;;
23290;SDS011;11814;44.686;10.842;2022-12-07T12:19:41;35.63;;;26.88;;
23290;SDS011;11814;44.686;10.842;2022-12-07T12:22:16;43.63;;;29.17;;
23290;SDS011;11814;44.686;10.842;2022-12-07T12:24:44;42.45;;;30.08;;
23290;SDS011;11814;44.686;10.842;2022-12-07T12:27:25;41.67;;;29.63;;
23290;SDS011;11814;44.686;10.842;2022-12-07T12:29:55;39.50;;;28.80;;
23290;SDS011;11814;44.686;10.842;2022-12-07T12:32:30;39.80;;;26.55;;
23290;SDS011;11814;44.686;10.842;2022-12-07T13:04:59;40.47;;;26.70;;
23290;SDS011;11814;44.686;10.842;2022-12-07T13:15:38;37.33;;;25.60;;
23290;SDS011;11814;44.686;10.842;2022-12-07T13:23:24;39.92;;;27.90;;
23290;SDS011;11814;44.686;10.842;2022-12-07T13:28:37;41.25;;;26.52;;
23290;SDS011;11814;44.686;10.842;2022-12-07T13:31:18;43.03;;;27.23;;
23290;SDS011;11814;44.686;10.842;2022-12-07T13:33:56;42.33;;;27.38;;
23290;SDS011;11814;44.686;10.842;2022-12-07T13:36:43;39.05;;;26.88;;
23290;SDS011;11814;44.686;10.842;2022-12-07T13:41:52;39.90;;;26.65;;
23290;SDS011;11814;44.686;10.842;2022-12-07T13:44:20;38.20;;;26.05;;
23290;SDS011;11814;44.686;10.842;2022-12-07T13:52:24;40.20;;;26.52;;
23290;SDS011;11814;44.686;10.842;2022-12-07T13:57:30;36.33;;;25.80;;
23290;SDS011;11814;44.686;10.842;2022-12-07T13:59:59;39.45;;;26.48;;
23290;SDS011;11814;44.686;10.842;2022-12-07T14:02:33;40.80;;;27.15;;
23290;SDS011;11814;44.686;10.842;2022-12-07T14:05:07;39.88;;;26.58;;
23290;SDS011;11814;44.686;10.842;2022-12-07T14:10:53;41.25;;;27.10;;
23290;SDS011;11814;44.686;10.842;2022-12-07T14:16:28;37.50;;;24.27;;
23290;SDS011;11814;44.686;10.842;2022-12-07T14:18:56;41.60;;;25.27;;
23290;SDS011;11814;44.686;10.842;2022-12-07T14:21:28;39.72;;;24.20;;
23290;SDS011;11814;44.686;10.842;2022-12-07T14:26:41;39.45;;;26.25;;
23290;SDS011;11814;44.686;10.842;2022-12-07T14:31:54;35.85;;;24.38;;
23290;SDS011;11814;44.686;10.842;2022-12-07T14:34:22;36.95;;;23.70;;
23290;SDS011;11814;44.686;10.842;2022-12-07T14:36:48;35.78;;;23.90;;
23290;SDS011;11814;44.686;10.842;2022-12-07T14:39:14;34.20;;;22.85;;
23290;SDS011;11814;44.686;10.842;2022-12-07T14:41:40;38.25;;;24.15;;
23290;SDS011;11814;44.686;10.842;2022-12-07T14:44:15;34.47;;;23.27;;
23290;SDS011;11814;44.686;10.842;2022-12-07T14:46:42;35.10;;;24.08;;
23290;SDS011;11814;44.686;10.842;2022-12-07T14:49:07;36.85;;;24.33;;
23290;SDS011;11814;44.686;10.842;2022-12-07T14:51:33;38.63;;;25.98;;
23290;SDS011;11814;44.686;10.842;2022-12-07T14:54:03;38.40;;;26.30;;
23290;SDS011;11814;44.686;10.842;2022-12-07T14:56:31;39.42;;;25.65;;
23290;SDS011;11814;44.686;10.842;2022-12-07T14:58:57;37.22;;;25.08;;
23290;SDS011;11814;44.686;10.842;2022-12-07T15:01:22;34.13;;;24.17;;
23290;SDS011;11814;44.686;10.842;2022-12-07T15:03:48;38.42;;;24.92;;
23290;SDS011;11814;44.686;10.842;2022-12-07T15:06:15;35.85;;;24.50;;
23290;SDS011;11814;44.686;10.842;2022-12-07T15:08:42;37.03;;;25.05;;
23290;SDS011;11814;44.686;10.842;2022-12-07T15:11:15;41.30;;;24.65;;
23290;SDS011;11814;44.686;10.842;2022-12-07T15:13:42;37.88;;;24.77;;
23290;SDS011;11814;44.686;10.842;2022-12-07T15:16:27;39.80;;;25.08;;
23290;SDS011;11814;44.686;10.842;2022-12-07T15:18:53;41.63;;;26.80;;
23290;SDS011;11814;44.686;10.842;2022-12-07T15:21:18;42.30;;;26.88;;
23290;SDS011;11814;44.686;10.842;2022-12-07T15:23:46;40.13;;;26.30;;
23290;SDS011;11814;44.686;10.842;2022-12-07T15:26:12;40.45;;;26.17;;
23290;SDS011;11814;44.686;10.842;2022-12-07T15:28:38;42.40;;;26.38;;
23290;SDS011;11814;44.686;10.842;2022-12-07T15:31:10;56.10;;;31.75;;
23290;SDS011;11814;44.686;10.842;2022-12-07T15:33:39;48.70;;;29.52;;
23290;SDS011;11814;44.686;10.842;2022-12-07T15:36:06;43.75;;;27.75;;
23290;SDS011;11814;44.686;10.842;2022-12-07T15:38:32;40.15;;;26.55;;
23290;SDS011;11814;44.686;10.842;2022-12-07T15:40:58;50.65;;;29.52;;
23290;SDS011;11814;44.686;10.842;2022-12-07T15:43:23;51.58;;;29.65;;
23290;SDS011;11814;44.686;10.842;2022-12-07T15:46:08;50.63;;;29.08;;
23290;SDS011;11814;44.686;10.842;2022-12-07T15:48:33;45.58;;;27.70;;
23290;SDS011;11814;44.686;10.842;2022-12-07T15:51:03;46.28;;;28.75;;
23290;SDS011;11814;44.686;10.842;2022-12-07T15:53:30;46.35;;;29.27;;
23290;SDS011;11814;44.686;10.842;2022-12-07T15:55:56;45.80;;;28.98;;
23290;SDS011;11814;44.686;10.842;2022-12-07T15:58:22;45.92;;;29.40;;
23290;SDS011;11814;44.686;10.842;2022-12-07T16:00:47;48.45;;;30.13;;
23290;SDS011;11814;44.686;10.842;2022-12-07T16:03:13;52.75;;;29.65;;
23290;SDS011;11814;44.686;10.842;2022-12-07T16:05:39;47.67;;;29.02;;
23290;SDS011;11814;44.686;10.842;2022-12-07T16:08:05;46.50;;;29.20;;
23290;SDS011;11814;44.686;10.842;2022-12-07T16:10:30;50.00;;;30.60;;
23290;SDS011;11814;44.686;10.842;2022-12-07T16:12:56;54.53;;;31.02;;
23290;SDS011;11814;44.686;10.842;2022-12-07T16:15:22;55.30;;;33.25;;
23290;SDS011;11814;44.686;10.842;2022-12-07T16:17:49;54.58;;;32.50;;
23290;SDS011;11814;44.686;10.842;2022-12-07T16:20:16;51.70;;;31.95;;
23290;SDS011;11814;44.686;10.842;2022-12-07T16:22:41;51.45;;;31.55;;
23290;SDS011;11814;44.686;10.842;2022-12-07T16:25:07;55.53;;;32.63;;
23290;SDS011;11814;44.686;10.842;2022-12-07T16:27:34;52.28;;;31.88;;
23290;SDS011;11814;44.686;10.842;2022-12-07T16:30:00;53.80;;;31.85;;
23290;SDS011;11814;44.686;10.842;2022-12-07T16:32:25;52.22;;;31.85;;
23290;SDS011;11814;44.686;10.842;2022-12-07T16:34:51;60.30;;;34.00;;
23290;SDS011;11814;44.686;10.842;2022-12-07T16:37:17;53.42;;;31.92;;
23290;SDS011;11814;44.686;10.842;2022-12-07T16:39:42;54.35;;;33.67;;
23290;SDS011;11814;44.686;10.842;2022-12-07T16:42:08;58.55;;;34.40;;
23290;SDS011;11814;44.686;10.842;2022-12-07T16:44:34;58.72;;;34.25;;
23290;SDS011;11814;44.686;10.842;2022-12-07T16:47:00;59.60;;;34.88;;
23290;SDS011;11814;44.686;10.842;2022-12-07T16:49:25;56.28;;;34.08;;
23290;SDS011;11814;44.686;10.842;2022-12-07T16:51:51;60.85;;;35.00;;
23290;SDS011;11814;44.686;10.842;2022-12-07T16:54:17;57.38;;;33.95;;
23290;SDS011;11814;44.686;10.842;2022-12-07T16:56:43;60.08;;;34.80;;